Time;durP1;ratioP1;P1;durP2;ratioP2;P2;SDS_P1;SDS_P2;PMS_P1;PMS_P2;Temp;Humidity;BMP_temperature;BMP_pressure;BME280_temperature;BME280_humidity;BME280_pressure;Samples;Min_cycle;Max_cycle;Signal;HPM_P1;HPM_P2
2023/08/13 00:00:22;;;;;;;8.90;1.97;;;;;;;17.68;98.61;101691.91;5151589;27;19911;-36
2023/08/13 00:02:47;;;;;;;;;;;;;;;17.76;98.30;101696.94;5151754;27;20295;-36
2023/08/13 00:05:12;;;;;;;8.47;1.80;;;;;;;17.63;99.76;101691.84;5151136;27;19907;-37
2023/08/13 00:07:38;;;;;;;;;;;;;;;17.73;98.41;101694.72;5152246;27;20264;-36
2023/08/13 00:10:04;;;;;;;5.28;1.88;;;;;;;17.52;99.63;101682.72;5143589;27;20006;-36
2023/08/13 00:12:30;;;;;;;7.82;2.00;;;;;;;17.50;100.00;101685.69;5138178;27;20023;-36
2023/08/13 00:14:55;;;;;;;;;;;;;;;17.65;99.46;101687.75;5137900;27;20035;-37
2023/08/13 00:17:20;;;;;;;6.82;1.85;;;;;;;17.48;100.00;101674.19;5137090;27;19915;-37
2023/08/13 00:19:46;;;;;;;4.15;1.73;;;;;;;17.55;100.00;101684.91;5136136;27;20034;-36
2023/08/13 00:22:11;;;;;;;6.07;1.73;;;;;;;17.41;100.00;101686.41;5137940;27;20019;-36
2023/08/13 00:24:36;;;;;;;;;;;;;;;17.53;100.00;101687.09;5137832;27;20019;-36
2023/08/13 00:27:02;;;;;;;5.80;2.05;;;;;;;17.29;100.00;101683.00;5137382;27;19910;-36
2023/08/13 00:29:27;;;;;;;;;;;;;;;17.43;100.00;101689.72;5137461;27;20050;-36
2023/08/13 00:31:55;;;;;;;10.32;1.88;;;;;;;17.31;100.00;101689.84;5137563;27;19903;-37
2023/08/13 00:34:22;;;;;;;7.90;2.10;;;;;;;17.28;100.00;101686.81;5136813;27;20482;-36
2023/08/13 00:36:47;;;;;;;5.43;1.77;;;;;;;17.31;100.00;101678.91;5136830;27;20052;-36
2023/08/13 00:39:12;;;;;;;;;;;;;;;17.39;100.00;101683.13;5137199;27;20019;-36
2023/08/13 00:41:38;;;;;;;6.50;2.00;;;;;;;17.25;100.00;101679.94;5137076;27;19916;-36
2023/08/13 00:44:03;;;;;;;;;;;;;;;17.28;100.00;101678.63;5137170;27;20352;-36
2023/08/13 00:46:29;;;;;;;8.50;2.00;;;;;;;17.10;100.00;101677.84;5137760;27;19908;-36
2023/08/13 00:48:55;;;;;;;;;;;;;;;17.21;100.00;101673.31;5137618;27;20027;-36
2023/08/13 00:51:22;;;;;;;7.05;1.90;;;;;;;16.97;100.00;101672.75;5137703;27;19908;-36
2023/08/13 00:53:48;;;;;;;8.15;2.10;;;;;;;16.96;100.00;101676.56;5136494;27;20102;-36
2023/08/13 00:56:14;;;;;;;;;;;;;;;17.13;100.00;101676.50;5138149;27;20059;-36
2023/08/13 00:58:41;;;;;;;6.37;1.87;;;;;;;16.95;100.00;101672.19;5136651;27;19911;-36
2023/08/13 01:01:07;;;;;;;6.43;2.42;;;;;;;16.94;100.00;101673.28;5137249;27;20087;-36
2023/08/13 01:03:33;;;;;;;;;;;;;;;17.06;100.00;101678.59;5137049;27;20105;-36
2023/08/13 01:06:10;;;;;;;7.45;2.05;;;;;;;16.90;100.00;101675.69;5137199;27;19907;-36
2023/08/13 01:08:41;;;;;;;5.78;2.05;;;;;;;16.84;100.00;101668.50;5136834;27;20023;-36
2023/08/13 01:11:19;;;;;;;6.70;1.98;;;;;;;16.93;100.00;101677.06;5136121;27;20027;-36
2023/08/13 01:14:13;;;;;;;7.20;1.92;;;;;;;16.93;100.00;101668.88;5136418;27;20132;-36
2023/08/13 01:16:42;;;;;;;9.18;2.25;;;;;;;16.84;100.00;101663.03;5133678;27;20363;-36
2023/08/13 01:19:11;;;;;;;7.25;2.55;;;;;;;16.81;100.00;101665.44;5136506;27;20026;-36
2023/08/13 01:21:37;;;;;;;6.50;1.98;;;;;;;16.81;100.00;101674.47;5134881;27;20462;-36
2023/08/13 01:24:02;;;;;;;;;;;;;;;16.96;100.00;101673.84;5136662;27;20021;-36
2023/08/13 01:26:47;;;;;;;8.48;1.90;;;;;;;16.83;100.00;101669.56;5136978;27;19903;-36
2023/08/13 01:29:20;;;;;;;8.05;2.25;;;;;;;16.74;100.00;101676.56;5135767;27;20026;-36
2023/08/13 01:31:50;;;;;;;7.40;2.05;;;;;;;16.64;100.00;101659.97;5136591;27;20027;-36
2023/08/13 01:34:17;;;;;;;9.55;2.17;;;;;;;16.68;100.00;101669.31;5136487;27;20051;-36
2023/08/13 01:36:44;;;;;;;6.32;2.17;;;;;;;16.70;100.00;101675.38;5136507;27;20023;-36
2023/08/13 01:39:10;;;;;;;8.95;2.83;;;;;;;16.66;100.00;101677.78;5135524;27;20459;-37
2023/08/13 01:41:52;;;;;;;;;;;;;;;16.77;100.00;101677.94;5136903;27;20012;-36
2023/08/13 01:44:17;;;;;;;7.43;1.98;;;;;;;16.61;100.00;101680.44;5135778;27;19910;-36
2023/08/13 01:46:42;;;;;;;;;;;;;;;16.71;100.00;101674.28;5135983;27;20027;-36
2023/08/13 01:49:08;;;;;;;8.83;2.67;;;;;;;16.58;100.00;101682.84;5135317;27;19998;-36
2023/08/13 01:51:33;;;;;;;;;;;;;;;16.65;100.00;101687.06;5136713;27;20292;-36
2023/08/13 01:53:58;;;;;;;8.80;2.23;;;;;;;16.50;100.00;101678.63;5135601;27;19904;-36
2023/08/13 01:56:24;;;;;;;;;;;;;;;16.63;100.00;101686.47;5136244;27;20630;-36
2023/08/13 01:58:49;;;;;;;8.17;2.30;;;;;;;16.53;100.00;101689.03;5135619;27;19927;-36
2023/08/13 02:01:14;;;;;;;;;;;;;;;16.63;100.00;101681.00;5135983;27;20749;-36
2023/08/13 02:03:39;;;;;;;7.50;2.00;;;;;;;16.53;100.00;101683.59;5135154;27;19954;-36
2023/08/13 02:06:05;;;;;;;;;;;;;;;16.61;100.00;101679.63;5135447;27;20280;-36
2023/08/13 02:08:31;;;;;;;8.87;2.10;;;;;;;16.53;100.00;101671.84;5135832;27;19907;-36
2023/08/13 02:10:56;;;;;;;6.30;2.00;;;;;;;16.38;100.00;101665.06;5135018;27;20267;-36
2023/08/13 02:13:21;;;;;;;;;;;;;;;16.60;100.00;101684.25;5135681;27;20027;-36
2023/08/13 02:15:47;;;;;;;8.57;2.33;;;;;;;16.44;100.00;101685.91;5135506;27;20347;-36
2023/08/13 02:18:12;;;;;;;;;;;;;;;16.57;100.00;101679.28;5135543;27;20724;-36
2023/08/13 02:20:37;;;;;;;6.70;2.10;;;;;;;16.41;100.00;101672.78;5135422;27;19907;-36
2023/08/13 02:23:03;;;;;;;;;;;;;;;16.56;100.00;101677.63;5135191;27;20332;-36
2023/08/13 02:25:28;;;;;;;5.85;1.85;;;;;;;16.41;100.00;101669.22;5135288;27;19907;-36
2023/08/13 02:27:53;;;;;;;;;;;;;;;16.52;100.00;101676.47;5135559;27;20023;-36
2023/08/13 02:30:19;;;;;;;5.63;1.90;;;;;;;16.36;100.00;101671.88;5134976;27;19907;-36
2023/08/13 02:32:44;;;;;;;;;;;;;;;16.42;100.00;101671.69;5135515;27;20075;-36
2023/08/13 02:35:09;;;;;;;6.85;2.05;;;;;;;16.21;100.00;101664.28;5134650;27;19907;-36
2023/08/13 02:37:35;;;;;;;;;;;;;;;16.37;100.00;101670.78;5135851;27;20057;-36
2023/08/13 02:40:01;;;;;;;4.72;1.73;;;;;;;16.34;100.00;101665.81;5134883;27;19914;-36
2023/08/13 02:42:26;;;;;;;;;;;;;;;16.41;100.00;101667.31;5135816;27;20030;-36
2023/08/13 02:44:51;;;;;;;3.83;1.70;;;;;;;16.19;100.00;101658.22;5134772;27;20358;-36
2023/08/13 02:47:17;;;;;;;;;;;;;;;16.35;100.00;101656.56;5135577;27;20253;-36
2023/08/13 02:49:42;;;;;;;6.28;2.00;;;;;;;16.11;100.00;101650.47;5134769;27;19907;-36
2023/08/13 02:52:07;;;;;;;;;;;;;;;16.29;100.00;101666.56;5135170;27;20015;-36
2023/08/13 02:54:32;;;;;;;8.10;2.38;;;;;;;16.14;100.00;101675.34;5134435;27;19912;-36
2023/08/13 02:56:59;;;;;;;;;;;;;;;16.24;100.00;101658.31;5135696;27;20031;-36
2023/08/13 02:59:25;;;;;;;9.82;2.28;;;;;;;16.08;100.00;101665.41;5135107;27;19912;-36
2023/08/13 03:01:50;;;;;;;;;;;;;;;16.22;100.00;101657.72;5135132;27;20019;-36
2023/08/13 03:04:15;;;;;;;9.57;2.77;;;;;;;16.07;100.00;101658.31;5134625;28;19964;-36
2023/08/13 03:06:40;;;;;;;;;;;;;;;16.19;100.00;101659.03;5135006;28;20257;-36
2023/08/13 03:09:06;;;;;;;5.53;1.70;;;;;;;15.98;100.00;101657.06;5134581;28;19998;-37
2023/08/13 03:11:31;;;;;;;;;;;;;;;16.15;100.00;101662.50;5134942;28;20339;-36
2023/08/13 03:13:56;;;;;;;7.80;1.70;;;;;;;16.01;100.00;101659.31;5134750;28;20240;-36
2023/08/13 03:16:22;;;;;;;;;;;;;;;16.12;100.00;101661.13;5135238;28;20275;-36
2023/08/13 03:18:47;;;;;;;6.88;1.90;;;;;;;15.92;100.00;101656.16;5134369;27;19914;-36
2023/08/13 03:21:12;;;;;;;;;;;;;;;16.08;100.00;101659.13;5135182;28;20030;-36
2023/08/13 03:23:38;;;;;;;7.38;1.70;;;;;;;15.94;100.00;101658.63;5134697;28;19903;-36
2023/08/13 03:26:04;;;;;;;;;;;;;;;16.04;100.00;101657.97;5135200;27;20114;-36
2023/08/13 03:28:29;;;;;;;8.05;1.88;;;;;;;15.83;100.00;101667.72;5133994;27;20347;-36
2023/08/13 03:31:01;;;;;;;;;;;;;;;15.97;100.00;101669.06;5134488;27;20019;-36
2023/08/13 03:33:26;;;;;;;8.60;2.67;;;;;;;15.78;100.00;101664.91;5134061;27;20506;-36
2023/08/13 03:35:51;;;;;;;6.97;1.80;;;;;;;15.74;100.00;101663.75;5134318;28;20106;-36
2023/08/13 03:38:17;;;;;;;;;;;;;;;15.88;100.00;101660.44;5134658;27;20106;-36
2023/08/13 03:40:43;;;;;;;5.60;1.60;;;;;;;15.77;100.00;101663.25;5133996;28;19983;-36
2023/08/13 03:43:08;;;;;;;;;;;;;;;15.86;100.00;101659.03;5135231;27;20268;-36
2023/08/13 03:45:33;;;;;;;6.23;1.97;;;;;;;15.69;100.00;101665.28;5136933;27;20453;-36
2023/08/13 03:47:58;;;;;;;5.70;1.60;;;;;;;15.68;100.00;101666.38;5138158;27;20752;-36
2023/08/13 03:50:24;;;;;;;;;;;;;;;15.80;100.00;101673.66;5138473;27;20374;-36
2023/08/13 03:52:49;;;;;;;6.95;1.85;;;;;;;15.62;100.00;101667.31;5137718;27;20354;-36
2023/08/13 03:55:15;;;;;;;;;;;;;;;15.77;100.00;101663.25;5138114;27;20023;-36
2023/08/13 03:57:40;;;;;;;7.57;1.95;;;;;;;15.55;100.00;101661.19;5137651;27;20018;-36
2023/08/13 04:00:06;;;;;;;;;;;;;;;15.69;100.00;101662.56;5138067;27;20054;-36
2023/08/13 04:02:39;;;;;;;8.98;1.92;;;;;;;15.63;100.00;101663.56;5137755;27;19915;-36
2023/08/13 04:05:06;;;;;;;7.95;2.28;;;;;;;15.52;100.00;101672.59;5137505;27;20027;-36
2023/08/13 04:07:31;;;;;;;9.13;2.30;;;;;;;15.48;100.00;101679.59;5137720;27;20055;-36
2023/08/13 04:09:56;;;;;;;5.90;2.03;;;;;;;15.43;100.00;101669.41;5137644;27;20051;-36
2023/08/13 04:12:21;;;;;;;;;;;;;;;15.62;100.00;101678.22;5138688;27;20031;-36
2023/08/13 04:14:47;;;;;;;7.17;2.10;;;;;;;15.61;100.00;101682.00;5137499;27;19907;-36
2023/08/13 04:17:12;;;;;;;6.65;1.83;;;;;;;15.47;100.00;101672.50;5137914;27;20251;-36
2023/08/13 04:19:37;;;;;;;6.20;1.63;;;;;;;15.57;100.00;101678.13;5137429;27;20405;-36
2023/08/13 04:22:03;;;;;;;;;;;;;;;15.61;100.00;101675.72;5138785;27;20023;-36
2023/08/13 04:24:28;;;;;;;7.00;2.00;;;;;;;15.43;100.00;101663.16;5137415;27;19903;-36
2023/08/13 04:26:53;;;;;;;;;;;;;;;15.59;100.00;101675.97;5138744;27;20023;-36
2023/08/13 04:29:19;;;;;;;6.80;2.28;;;;;;;15.55;100.00;101677.53;5137287;27;20314;-36
2023/08/13 04:31:44;;;;;;;;;;;;;;;15.59;100.00;101675.16;5138071;27;20030;-36
2023/08/13 04:34:09;;;;;;;6.27;1.87;;;;;;;15.39;100.00;101670.16;5137236;27;19903;-36
2023/08/13 04:36:36;;;;;;;8.57;1.77;;;;;;;15.43;100.00;101671.31;5137554;27;20332;-36
2023/08/13 04:39:02;;;;;;;8.52;2.10;;;;;;;15.37;100.00;101658.66;5137040;27;20054;-36
2023/08/13 04:41:27;;;;;;;;;;;;;;;15.60;100.00;101674.91;5137516;27;20027;-36
2023/08/13 04:43:52;;;;;;;7.03;1.70;;;;;;;15.51;100.00;101660.00;5137047;27;19903;-37
2023/08/13 04:46:17;;;;;;;;;;;;;;;15.68;100.00;101671.81;5137407;27;20301;-36
2023/08/13 04:48:47;;;;;;;8.93;2.20;;;;;;;15.64;100.00;101672.56;5136951;27;19998;-36
2023/08/13 04:51:15;;;;;;;7.63;1.88;;;;;;;15.56;100.00;101665.56;5136900;27;20267;-36
2023/08/13 04:53:41;;;;;;;8.10;2.00;;;;;;;15.57;100.00;101664.50;5136794;27;20015;-36
2023/08/13 04:56:06;;;;;;;;;;;;;;;15.76;100.00;101683.38;5136844;27;20072;-36
2023/08/13 04:58:32;;;;;;;8.20;2.33;;;;;;;15.64;100.00;101684.28;5136548;27;19915;-36
2023/08/13 05:00:58;;;;;;;9.80;2.47;;;;;;;15.56;100.00;101668.28;5137554;27;20027;-36
2023/08/13 05:03:23;;;;;;;;;;;;;;;15.77;100.00;101677.72;5137120;27;20019;-36
2023/08/13 05:05:49;;;;;;;7.18;1.80;;;;;;;15.76;100.00;101680.66;5136647;27;19953;-36
2023/08/13 05:08:14;;;;;;;;;;;;;;;15.85;100.00;101676.47;5137395;27;20019;-36
2023/08/13 05:10:39;;;;;;;9.30;1.97;;;;;;;15.82;100.00;101676.97;5136220;27;19907;-36
2023/08/13 05:13:05;;;;;;;9.50;2.40;;;;;;;15.93;100.00;101679.63;5136777;27;20339;-36
2023/08/13 05:15:30;;;;;;;;;;;;;;;16.02;100.00;101671.88;5136824;27;20033;-36
2023/08/13 05:17:57;;;;;;;7.03;2.40;;;;;;;15.99;100.00;101666.06;5136108;27;20327;-36
2023/08/13 05:20:23;;;;;;;8.18;2.03;;;;;;;16.01;100.00;101663.94;5136239;27;20272;-36
2023/08/13 05:22:48;;;;;;;;;;;;;;;16.14;100.00;101678.06;5137323;27;20019;-36
2023/08/13 05:25:13;;;;;;;9.67;3.20;;;;;;;16.01;100.00;101672.94;5136231;27;20331;-36
2023/08/13 05:27:39;;;;;;;;;;;;;;;16.11;100.00;101680.47;5136962;27;20247;-36
2023/08/13 05:30:05;;;;;;;8.37;2.80;;;;;;;15.99;100.00;101672.34;5136105;27;20258;-36
2023/08/13 05:32:30;;;;;;;;;;;;;;;16.14;100.00;101678.06;5136547;27;20251;-36
2023/08/13 05:34:55;;;;;;;6.50;2.00;;;;;;;16.10;100.00;101676.06;5136575;27;19907;-36
2023/08/13 05:37:21;;;;;;;;;;;;;;;16.17;100.00;101680.31;5136722;27;20252;-36
2023/08/13 05:39:46;;;;;;;8.43;2.20;;;;;;;16.05;100.00;101685.00;5135533;27;19919;-36
2023/08/13 05:42:11;;;;;;;;;;;;;;;16.18;100.00;101694.78;5136556;27;20260;-36
2023/08/13 05:44:37;;;;;;;5.57;2.40;;;;;;;16.12;100.00;101677.50;5135490;27;20266;-36
2023/08/13 05:47:02;;;;;;;;;;;;;;;16.27;100.00;101687.00;5134813;27;20087;-36
2023/08/13 05:49:28;;;;;;;6.88;2.10;;;;;;;16.27;100.00;101690.56;5135436;27;19994;-36
2023/08/13 05:51:53;;;;;;;;;;;;;;;16.44;100.00;101691.38;5136730;27;20015;-36
2023/08/13 05:54:18;;;;;;;9.38;2.60;;;;;;;16.39;100.00;101690.47;5135601;27;20300;-36
2023/08/13 05:56:43;;;;;;;;;;;;;;;16.55;100.00;101686.91;5136564;27;20047;-36
2023/08/13 05:59:09;;;;;;;8.43;2.43;;;;;;;16.57;100.00;101686.66;5135353;27;19918;-36
2023/08/13 06:01:34;;;;;;;;;;;;;;;16.77;100.00;101688.88;5136561;27;20261;-36
2023/08/13 06:04:01;;;;;;;8.07;2.65;;;;;;;16.75;100.00;101697.34;5135388;27;19957;-36
2023/08/13 06:06:27;;;;;;;8.15;2.45;;;;;;;16.80;100.00;101683.75;5135701;27;20027;-36
2023/08/13 06:08:52;;;;;;;;;;;;;;;16.98;100.00;101690.78;5135248;27;20412;-36
2023/08/13 06:11:17;;;;;;;10.05;2.33;;;;;;;16.98;100.00;101686.19;5135372;27;19907;-37
2023/08/13 06:13:43;;;;;;;;;;;;;;;17.11;100.00;101690.44;5135686;27;20451;-37
2023/08/13 06:16:08;;;;;;;7.95;2.65;;;;;;;16.99;100.00;101687.84;5135889;27;19907;-36
2023/08/13 06:18:36;;;;;;;;;;;;;;;17.15;100.00;101696.22;5135506;27;20362;-36
2023/08/13 06:21:03;;;;;;;7.45;2.63;;;;;;;17.12;100.00;101699.44;5135518;27;20047;-36
2023/08/13 06:23:29;;;;;;;8.88;2.47;;;;;;;17.16;100.00;101686.94;5135049;27;20019;-36
2023/08/13 06:25:55;;;;;;;;;;;;;;;17.31;100.00;101695.31;5135881;27;20023;-37
2023/08/13 06:28:20;;;;;;;8.68;3.05;;;;;;;17.27;100.00;101682.41;5135318;27;19914;-36
2023/08/13 06:30:45;;;;;;;;;;;;;;;17.46;100.00;101692.75;5135742;27;20398;-36
2023/08/13 06:33:10;;;;;;;;;;;;;;;17.49;100.00;101694.97;5135786;27;19929;-36
2023/08/13 06:35:36;;;;;;;;;;;;;;;17.54;100.00;101694.22;5135891;27;20014;-36
2023/08/13 06:38:02;;;;;;;;;;;;;;;17.64;100.00;101693.50;5136177;27;19908;-36
2023/08/13 06:40:27;;;;;;;;;;;;;;;17.69;100.00;101697.09;5135325;27;19976;-36
2023/08/13 06:42:52;;;;;;;;;;;;;;;17.74;100.00;101688.16;5135001;27;20423;-36
2023/08/13 06:45:19;;;;;;;;;;;;;;;17.82;100.00;101697.81;5136072;27;19958;-36
2023/08/13 06:47:44;;;;;;;;;;;;;;;17.88;100.00;101696.78;5135578;27;19907;-36
2023/08/13 06:50:09;;;;;;;;;;;;;;;17.92;100.00;101697.91;5135072;27;19930;-36
2023/08/13 06:52:35;;;;;;;;;;;;;;;17.96;100.00;101699.06;5115440;28;19959;-36
2023/08/13 06:55:00;;;;;;;;;;;;;;;17.97;100.00;101697.97;5114526;28;19912;-37
2023/08/13 06:57:26;;;;;;;;;;;;;;;18.00;100.00;101697.44;5115478;28;19911;-36
2023/08/13 06:59:51;;;;;;;;;;;;;;;18.04;100.00;101697.75;5114904;28;19933;-36
2023/08/13 07:02:16;;;;;;;;;;;;;;;18.07;100.00;101686.28;5114544;28;19908;-36
2023/08/13 07:04:41;;;;;;;;;;;;;;;18.10;100.00;101693.97;5114767;28;20057;-36
2023/08/13 07:07:07;;;;;;;;;;;;;;;18.15;100.00;101694.81;5114562;28;19908;-36
2023/08/13 07:09:33;;;;;;;;;;;;;;;18.25;100.00;101694.06;5114520;28;20006;-36
2023/08/13 07:11:59;;;;;;;;;;;;;;;18.36;100.00;101695.00;5114484;28;19907;-36
2023/08/13 07:14:24;;;;;;;;;;;;;;;18.42;100.00;101693.94;5114354;28;19914;-37
2023/08/13 07:16:49;;;;;;;;;;;;;;;18.46;100.00;101690.41;5114390;28;19915;-36
2023/08/13 07:19:14;;;;;;;;;;;;;;;18.49;100.00;101691.78;5114586;28;19908;-36
2023/08/13 07:21:40;;;;;;;;;;;;;;;18.54;100.00;101689.09;5118586;27;20344;-36
2023/08/13 07:24:05;;;;;;;;;;;;;;;18.63;100.00;101682.03;5119318;28;19970;-36
2023/08/13 07:26:30;;;;;;;;;;;;;;;18.76;100.00;101683.53;5118805;28;20224;-37
2023/08/13 07:28:56;;;;;;;;;;;;;;;18.86;100.00;101680.84;5118367;27;20390;-37
2023/08/13 07:31:21;;;;;;;;;;;;;;;18.96;100.00;101685.53;5118624;28;19907;-36
2023/08/13 07:33:46;;;;;;;;;;;;;;;19.09;100.00;101686.97;5118309;28;19930;-36
2023/08/13 07:36:11;;;;;;;;;;;;;;;19.11;100.00;101685.59;5119180;27;19914;-36
2023/08/13 07:38:37;;;;;;;;;;;;;;;19.12;100.00;101687.25;5118482;28;19907;-37
2023/08/13 07:41:03;;;;;;;;;;;;;;;19.17;100.00;101684.53;5118727;28;20383;-37
2023/08/13 07:43:29;;;;;;;;;;;;;;;19.21;100.00;101682.91;5118317;28;19908;-36
2023/08/13 07:45:54;;;;;;;;;;;;;;;19.23;100.00;101688.97;5118391;28;19907;-36
2023/08/13 07:48:19;;;;;;;;;;;;;;;19.29;100.00;101692.53;5118010;28;19914;-36
2023/08/13 07:50:44;;;;;;;;;;;;;;;19.39;100.00;101689.00;5117924;28;19908;-36
2023/08/13 07:53:09;;;;;;;;;;;;;;;19.45;100.00;101686.00;5117960;28;20375;-36
2023/08/13 07:55:35;;;;;;;;;;;;;;;19.52;100.00;101692.06;5117554;28;19939;-36
2023/08/13 07:58:00;;;;;;;;;;;;;;;19.58;100.00;101690.16;5118062;28;19907;-36
2023/08/13 08:00:26;;;;;;;;;;;;;;;19.64;100.00;101682.78;5117271;28;20317;-36
2023/08/13 08:02:51;;;;;;;;;;;;;;;19.69;100.00;101683.63;5117796;28;19907;-37
2023/08/13 08:05:17;;;;;;;;;;;;;;;19.76;100.00;101680.59;5117635;28;19915;-37
2023/08/13 08:07:42;;;;;;;;;;;;;;;19.85;100.00;101670.75;5118223;28;19952;-36
2023/08/13 08:10:07;;;;;;;;;;;;;;;19.93;100.00;101675.69;5118451;28;19908;-37
2023/08/13 08:12:33;;;;;;;;;;;;;;;19.99;100.00;101671.03;5118469;28;20332;-37
2023/08/13 08:14:58;;;;;;;;;;;;;;;20.01;100.00;101672.41;5117220;28;19908;-37
2023/08/13 08:17:23;;;;;;;;;;;;;;;20.09;100.00;101672.94;5117752;27;19907;-37
2023/08/13 08:19:48;;;;;;;;;;;;;;;20.11;100.00;101682.56;5117888;28;19908;-37
2023/08/13 08:22:14;;;;;;;;;;;;;;;20.14;100.00;101682.00;5117892;28;19908;-36
2023/08/13 08:24:39;;;;;;;;;;;;;;;20.16;100.00;101677.06;5117315;28;19996;-37
2023/08/13 08:27:07;;;;;;;;;;;;;;;20.18;100.00;101679.53;5117367;28;19915;-37
2023/08/13 08:29:33;;;;;;;;;;;;;;;20.24;100.00;101675.69;5117475;28;19911;-37
2023/08/13 08:31:58;;;;;;;;;;;;;;;20.32;100.00;101673.22;5116704;28;19931;-37
2023/08/13 08:34:23;;;;;;;;;;;;;;;20.42;100.00;101677.88;5117107;28;19907;-37
2023/08/13 08:36:48;;;;;;;;;;;;;;;20.53;100.00;101679.53;5116832;28;20004;-37
2023/08/13 08:39:14;;;;;;;;;;;;;;;20.60;100.00;101668.25;5117119;28;19956;-37
2023/08/13 08:41:44;;;;;;;;;;;;;;;20.68;100.00;101672.34;5117869;28;20225;-37
2023/08/13 08:44:15;;;;;;;;;;;;;;;20.74;100.00;101668.47;5117587;28;19980;-37
2023/08/13 08:46:41;;;;;;;;;;;;;;;20.77;100.00;101673.44;5117235;28;19908;-37
2023/08/13 08:49:06;;;;;;;;;;;;;;;20.77;100.00;101674.25;5117095;28;20346;-37
2023/08/13 08:51:32;;;;;;;;;;;;;;;20.81;100.00;101667.09;5116761;28;19907;-37
2023/08/13 08:53:57;;;;;;;;;;;;;;;20.72;99.54;101671.50;5116991;28;19915;-37
2023/08/13 08:56:24;;;;;;;;;;;;;;;20.75;100.00;101672.91;5116360;28;19907;-37
2023/08/13 08:58:49;;;;;;;;;;;;;;;20.74;100.00;101672.06;5116660;28;20247;-37
2023/08/13 09:01:15;;;;;;;;;;;;;;;20.81;99.71;101672.59;5116914;28;19907;-37
2023/08/13 09:03:40;;;;;;;;;;;;;;;20.89;99.81;101665.72;5116211;28;19908;-37
2023/08/13 09:06:05;;;;;;;;;;;;;;;21.01;99.30;101668.94;5116911;28;19934;-37
2023/08/13 09:08:30;;;;;;;;;;;;;;;21.10;99.70;101658.19;5116502;28;19976;-37
2023/08/13 09:10:56;;;;;;;;;;;;;;;21.15;100.00;101651.84;5117288;28;19912;-37
2023/08/13 09:13:21;;;;;;;;;;;;;;;21.13;97.57;101654.03;5116920;28;19911;-37
2023/08/13 09:15:47;;;;;;;;;;;;;;;21.12;99.76;101652.41;5117230;28;19990;-37
2023/08/13 09:18:13;;;;;;;;;;;;;;;21.06;99.03;101648.84;5116859;27;19908;-37
2023/08/13 09:20:45;;;;;;;;;;;;;;;21.02;96.40;101642.28;5116207;28;19952;-37
2023/08/13 09:23:10;;;;;;;;;;;;;;;20.94;96.61;101648.38;5116672;28;19915;-37
2023/08/13 09:25:36;;;;;;;;;;;;;;;20.89;96.53;101642.91;5116114;28;19912;-37
2023/08/13 09:28:02;;;;;;;;;;;;;;;20.92;98.20;101645.88;5116353;28;19908;-37
2023/08/13 09:30:31;;;;;;;;;;;;;;;21.02;98.77;101642.28;5116007;28;19914;-36
2023/08/13 09:32:57;;;;;;;;;;;;;;;21.12;99.51;101625.72;5115991;28;19919;-37
2023/08/13 09:35:22;;;;;;;;;;;;;;;21.33;97.67;101638.31;5115539;28;19908;-37
2023/08/13 09:37:47;;;;;;;;;;;;;;;21.46;94.30;101630.50;5115432;28;19914;-37
2023/08/13 09:40:13;;;;;;;;;;;;;;;21.57;95.73;101632.09;5116727;27;19911;-37
2023/08/13 09:42:38;;;;;;;;;;;;;;;21.69;96.55;101621.53;5119794;27;19911;-37
2023/08/13 09:45:05;;;;;;;;;;;;;;;21.84;96.96;101620.59;5127791;27;19916;-37
2023/08/13 09:47:32;;;;;;;;;;;;;;;21.97;96.70;101608.13;5115447;28;19908;-38
2023/08/13 09:49:58;;;;;;;;;;;;;;;22.01;90.69;101609.16;5125063;27;19918;-37
2023/08/13 09:52:26;;;;;;;;;;;;;;;22.07;91.61;101614.34;5122584;27;19911;-37
2023/08/13 09:54:54;;;;;;;;;;;;;;;22.05;89.23;101608.28;5135854;27;19907;-37
2023/08/13 09:57:21;;;;;;;;;;;;;;;22.10;90.67;101608.25;5115578;28;19908;-37
2023/08/13 09:59:46;;;;;;;;;;;;;;;22.30;90.84;101604.53;5115855;28;20446;-37
2023/08/13 10:02:13;;;;;;;;;;;;;;;22.52;88.71;101603.16;5115486;28;20035;-37
2023/08/13 10:04:38;;;;;;;;;;;;;;;22.68;88.96;101610.13;5120139;27;19937;-37
2023/08/13 10:07:05;;;;;;;;;;;;;;;22.73;84.83;101604.56;5123438;27;19911;-37
2023/08/13 10:09:30;;;;;;;;;;;;;;;22.74;85.24;101605.38;5120318;27;19912;-37
2023/08/13 10:11:55;;;;;;;;;;;;;;;22.73;88.14;101598.22;5115031;27;19916;-37
2023/08/13 10:14:21;;;;;;;;;;;;;;;22.77;88.49;101602.03;5115091;28;19916;-37
2023/08/13 10:16:46;;;;;;;;;;;;;;;22.80;85.10;101601.47;5129188;27;19956;-37
2023/08/13 10:19:12;;;;;;;;;;;;;;;22.85;85.80;101606.91;5122857;27;19912;-37
2023/08/13 10:21:38;;;;;;;;;;;;;;;22.85;81.42;101602.22;5115321;28;19908;-37
2023/08/13 10:24:04;;;;;;;;;;;;;;;22.96;84.27;101594.66;5114905;28;19934;-37
2023/08/13 10:26:29;;;;;;;;;;;;;;;23.03;85.56;101602.56;5114936;28;19908;-37
2023/08/13 10:28:54;;;;;;;;;;;;;;;23.02;82.94;101601.75;5115274;28;19907;-37
2023/08/13 10:31:22;;;;;;;;;;;;;;;22.90;81.02;101603.31;5114618;28;19907;-37
2023/08/13 10:33:58;;;;;;;;;;;;;;;22.81;81.93;101600.34;5120901;27;19918;-37
2023/08/13 10:36:24;;;;;;;;;;;;;;;22.77;83.18;101600.09;5126247;27;19915;-37
2023/08/13 10:38:49;;;;;;;;;;;;;;;22.72;80.49;101594.66;5114502;28;19908;-37
2023/08/13 10:41:31;;;;;;;;;;;;;;;22.68;81.99;101596.34;5115054;28;19907;-38
2023/08/13 10:44:00;;;;;;;;;;;;;;;22.61;83.48;101591.22;5116396;27;19959;-38
2023/08/13 10:46:39;;;;;;;;;;;;;;;22.70;83.38;101602.41;5114462;28;19914;-37
2023/08/13 10:49:04;;;;;;;;;;;;;;;22.92;82.01;101596.38;5115277;28;19911;-38
2023/08/13 10:51:30;;;;;;;;;;;;;;;23.22;84.46;101592.34;5114925;28;19915;-37
2023/08/13 10:53:57;;;;;;;;;;;;;;;23.46;82.40;101595.03;5118770;28;19921;-37
2023/08/13 10:56:23;;;;;;;;;;;;;;;23.53;77.94;101597.44;5115778;28;19912;-37
2023/08/13 10:58:49;;;;;;;;;;;;;;;23.59;77.71;101594.28;5115795;28;19912;-37
2023/08/13 11:01:16;;;;;;;;;;;;;;;23.73;78.19;101594.38;5115661;28;19919;-37
2023/08/13 11:03:45;;;;;;;;;;;;;;;23.89;78.81;101581.13;5129496;27;19915;-37
2023/08/13 11:06:10;;;;;;;;;;;;;;;23.95;78.60;101590.13;5134383;27;19911;-37
2023/08/13 11:08:37;;;;;;;;;;;;;;;23.93;77.10;101584.09;5134733;28;19911;-37
2023/08/13 11:11:03;;;;;;;;;;;;;;;23.96;77.21;101581.56;5129030;27;19946;-37
2023/08/13 11:13:29;;;;;;;;;;;;;;;23.89;78.06;101581.94;5135018;27;20351;-37
2023/08/13 11:15:54;;;;;;;;;;;;;;;23.77;78.32;101569.75;5134601;27;19933;-37
2023/08/13 11:18:20;;;;;;;;;;;;;;;23.61;77.88;101581.00;5134784;27;20275;-37
2023/08/13 11:20:46;;;;;;;;;;;;;;;23.63;80.01;101586.22;5134867;27;20002;-37
2023/08/13 11:23:12;;;;;;;;;;;;;;;23.87;79.79;101583.38;5135168;27;19938;-37
2023/08/13 11:25:38;;;;;;;;;;;;;;;23.93;75.38;101578.59;5134461;27;19997;-37
2023/08/13 11:28:03;;;;;;;;;;;;;;;23.94;77.63;101582.97;5134886;27;19935;-37
2023/08/13 11:30:28;;;;;;;;;;;;;;;24.18;78.14;101582.81;5134450;28;19907;-37
2023/08/13 11:32:54;;;;;;;;;;;;;;;24.31;74.54;101582.84;5135022;28;19914;-37
2023/08/13 11:35:19;;;;;;;;;;;;;;;24.45;76.12;101570.97;5134399;28;20347;-37
2023/08/13 11:37:44;;;;;;;;;;;;;;;24.61;77.12;101575.09;5134754;27;19907;-37
2023/08/13 11:40:10;;;;;;;;;;;;;;;24.78;75.37;101574.44;5134629;28;19914;-37
2023/08/13 11:42:36;;;;;;;;;;;;;;;24.72;71.59;101578.47;5134622;27;20301;-37
2023/08/13 11:45:09;;;;;;;;;;;;;;;24.57;74.47;101574.06;5134334;27;20270;-37
2023/08/13 11:47:35;;;;;;;;;;;;;;;24.49;74.60;101566.47;5135194;27;20266;-37
2023/08/13 11:50:00;;;;;;;;;;;;;;;24.38;74.39;101568.63;5134578;28;19907;-37
2023/08/13 11:52:25;;;;;;;;;;;;;;;24.28;74.52;101569.63;5134589;28;19943;-37
2023/08/13 11:54:51;;;;;;;;;;;;;;;24.35;74.40;101561.75;5134532;27;19914;-37
2023/08/13 11:57:18;;;;;;;;;;;;;;;24.57;75.79;101558.28;5134850;27;19918;-37